Time;durP1;ratioP1;P1;durP2;ratioP2;P2;SDS_P1;SDS_P2;PMS_P1;PMS_P2;Temp;Humidity;BMP_temperature;BMP_pressure;BME280_temperature;BME280_humidity;BME280_pressure;Samples;Min_cycle;Max_cycle;Signal;HPM_P1;HPM_P2
2022/03/05 00:00:19;;;;;;;2.83;0.93;;;;;;;21.34;24.89;103036.13;4213611;28;20421;-44
2022/03/05 00:02:20;;;;;;;1.33;0.80;;;;;;;21.37;24.94;103040.41;4213987;28;20444;-46
2022/03/05 00:04:22;;;;;;;1.65;0.90;;;;;;;21.34;25.09;103038.91;4214054;28;20429;-45
2022/03/05 00:06:23;;;;;;;1.00;0.90;;;;;;;21.36;25.18;103042.34;4213724;28;20016;-45
2022/03/05 00:08:25;;;;;;;1.00;0.85;;;;;;;21.36;24.88;103041.50;4213659;28;20040;-43
2022/03/05 00:10:26;;;;;;;0.77;0.70;;;;;;;21.33;25.24;103040.00;4209621;28;20430;-43
2022/03/05 00:12:28;;;;;;;0.73;0.60;;;;;;;21.36;24.94;103052.63;4214147;28;20085;-47
2022/03/05 00:14:29;;;;;;;1.17;0.80;;;;;;;21.36;24.86;103055.41;4213653;28;20044;-45
2022/03/05 00:16:30;;;;;;;1.17;0.95;;;;;;;21.36;25.41;103049.84;4213969;28;20098;-48
2022/03/05 00:18:32;;;;;;;0.90;0.80;;;;;;;21.34;25.17;103052.00;4214241;28;20089;-43
2022/03/05 00:20:33;;;;;;;1.55;1.00;;;;;;;21.36;25.18;103055.41;4214072;28;20436;-45
2022/03/05 00:22:34;;;;;;;1.30;0.77;;;;;;;21.36;24.96;103059.03;4217205;28;20081;-43
2022/03/05 00:24:36;;;;;;;1.63;1.00;;;;;;;21.33;25.17;103053.94;4217668;28;20421;-44
2022/03/05 00:26:37;;;;;;;2.28;1.30;;;;;;;21.36;24.88;103063.78;4217033;28;20032;-47
2022/03/05 00:28:39;;;;;;;1.27;1.00;;;;;;;21.34;24.96;103063.97;4216561;28;20105;-51
2022/03/05 00:30:41;;;;;;;1.00;0.90;;;;;;;21.33;25.32;103062.28;4211685;28;20440;-43
2022/03/05 00:32:43;;;;;;;3.00;1.30;;;;;;;21.34;25.38;103066.78;4216605;28;20105;-45
2022/03/05 00:34:45;;;;;;;0.88;0.80;;;;;;;21.34;25.33;103071.50;4216821;28;20101;-45
2022/03/05 00:36:46;;;;;;;0.82;0.80;;;;;;;21.33;25.16;103058.66;4216830;28;20074;-47
2022/03/05 00:38:48;;;;;;;1.30;0.95;;;;;;;21.33;24.91;103067.00;4216852;28;20499;-45
2022/03/05 00:40:49;;;;;;;2.05;0.80;;;;;;;21.33;25.11;103069.78;4216637;28;20044;-49
2022/03/05 00:42:51;;;;;;;2.20;1.35;;;;;;;21.33;25.20;103072.59;4216222;28;20032;-46
2022/03/05 00:44:52;;;;;;;1.17;0.70;;;;;;;21.33;25.33;103058.66;4217225;28;20093;-45
2022/03/05 00:46:56;;;;;;;0.80;0.68;;;;;;;21.31;24.99;103062.53;4216752;28;20400;-44
2022/03/05 00:48:58;;;;;;;1.20;0.80;;;;;;;21.29;25.43;103053.50;4216673;28;20477;-44
2022/03/05 00:50:59;;;;;;;1.65;1.00;;;;;;;21.33;25.04;103053.09;4217125;28;20409;-47
2022/03/05 00:53:00;;;;;;;1.00;0.70;;;;;;;21.28;25.40;103050.97;4216686;28;20048;-48
2022/03/05 00:55:03;;;;;;;2.00;1.15;;;;;;;21.30;25.06;103066.38;4216678;28;20097;-43
2022/03/05 00:57:04;;;;;;;1.40;0.95;;;;;;;21.27;25.35;103055.69;4216660;28;20052;-44
2022/03/05 00:59:05;;;;;;;0.80;0.80;;;;;;;21.28;25.36;103059.31;4215305;28;20036;-45
2022/03/05 01:01:07;;;;;;;1.48;1.17;;;;;;;21.31;25.10;103065.31;4214713;28;20545;-47
2022/03/05 01:03:08;;;;;;;2.30;0.90;;;;;;;21.31;25.51;103068.09;4216477;28;20479;-46
2022/03/05 01:05:10;;;;;;;1.05;0.80;;;;;;;21.32;25.21;103063.38;4216361;28;20093;-47
2022/03/05 01:07:12;;;;;;;1.52;0.80;;;;;;;21.34;25.38;103071.50;4216311;28;20475;-48
2022/03/05 01:09:13;;;;;;;0.80;0.63;;;;;;;21.35;25.33;103067.63;4216625;28;20105;-46
2022/03/05 01:11:17;;;;;;;2.88;0.70;;;;;;;21.34;25.33;103072.34;4215764;28;20449;-44
2022/03/05 01:13:19;;;;;;;1.35;0.77;;;;;;;21.33;25.86;103072.59;4216528;28;20086;-48
2022/03/05 01:15:20;;;;;;;1.35;0.90;;;;;;;21.31;25.84;103073.66;4215886;28;20036;-45
2022/03/05 01:17:22;;;;;;;1.52;1.00;;;;;;;21.35;25.60;103073.19;4215900;28;20077;-47
2022/03/05 01:19:25;;;;;;;0.95;0.88;;;;;;;21.36;25.89;103080.47;4216247;28;20039;-44
2022/03/05 01:21:27;;;;;;;1.00;0.80;;;;;;;21.35;25.80;103081.53;4215650;28;20089;-44
2022/03/05 01:23:28;;;;;;;1.20;1.00;;;;;;;21.36;25.71;103074.91;4216227;28;20417;-46
2022/03/05 01:25:33;;;;;;;1.85;0.90;;;;;;;21.30;25.87;103060.81;4216115;28;20471;-45
2022/03/05 01:27:34;;;;;;;1.83;1.17;;;;;;;21.37;25.92;103071.03;4216418;28;20036;-46
2022/03/05 01:29:35;;;;;;;0.85;0.75;;;;;;;21.38;25.61;103064.38;4216034;28;20032;-44
2022/03/05 01:31:37;;;;;;;1.70;0.90;;;;;;;21.39;25.90;103074.44;4215824;28;20105;-46
2022/03/05 01:33:38;;;;;;;1.85;1.00;;;;;;;21.40;25.57;103078.94;4214970;28;20048;-44
2022/03/05 01:35:39;;;;;;;1.75;1.20;;;;;;;21.39;25.67;103071.63;4216227;28;20040;-46
2022/03/05 01:37:44;;;;;;;1.67;0.90;;;;;;;21.41;25.82;103069.50;4215945;28;20024;-45
2022/03/05 01:39:45;;;;;;;1.02;0.82;;;;;;;21.39;26.05;103063.28;4215865;28;20476;-44
2022/03/05 01:41:51;;;;;;;2.50;0.93;;;;;;;21.43;25.56;103070.09;4215543;28;20032;-43
2022/03/05 01:43:52;;;;;;;1.40;1.02;;;;;;;21.44;25.65;103077.34;4215654;28;20484;-44
2022/03/05 01:45:56;;;;;;;2.78;1.48;;;;;;;21.44;25.74;103077.34;4216288;28;20040;-46
2022/03/05 01:47:58;;;;;;;1.17;1.08;;;;;;;21.44;26.04;103074.56;4216057;28;20093;-46
2022/03/05 01:50:00;;;;;;;1.60;1.10;;;;;;;21.44;25.53;103077.34;4216025;28;20032;-46
2022/03/05 01:52:01;;;;;;;1.67;0.90;;;;;;;21.46;25.74;103083.56;4215380;28;20127;-47
2022/03/05 01:54:03;;;;;;;1.15;0.90;;;;;;;21.46;25.82;103086.34;4215498;28;20040;-47
2022/03/05 01:56:05;;;;;;;2.13;1.20;;;;;;;21.47;25.96;103085.25;4216190;28;20097;-44
2022/03/05 01:58:06;;;;;;;1.50;1.02;;;;;;;21.49;25.44;103088.69;4215427;28;20044;-46
2022/03/05 02:00:12;;;;;;;1.42;1.00;;;;;;;21.50;25.76;103087.59;4215576;28;20043;-47
2022/03/05 02:02:17;;;;;;;1.45;0.95;;;;;;;21.47;25.55;103083.31;4215300;28;20136;-45
2022/03/05 02:04:18;;;;;;;;;;;;;;;21.50;25.85;103093.16;4215875;28;20105;-44
2022/03/05 02:06:20;;;;;;;1.80;1.10;;;;;;;21.55;25.71;103085.78;4215988;28;20332;-45
2022/03/05 02:08:22;;;;;;;1.10;1.00;;;;;;;21.55;25.67;103088.59;4215770;28;20085;-44
2022/03/05 02:10:23;;;;;;;2.08;1.08;;;;;;;21.55;25.94;103093.31;4215353;28;20483;-47
2022/03/05 02:12:35;;;;;;;1.55;1.05;;;;;;;21.52;25.79;103090.97;4214946;28;20044;-44
2022/03/05 02:14:36;;;;;;;1.05;0.75;;;;;;;21.53;25.93;103093.56;4215467;28;20074;-46
2022/03/05 02:16:38;;;;;;;1.20;0.85;;;;;;;21.55;25.57;103096.09;4215126;28;20040;-46
2022/03/05 02:18:44;;;;;;;1.67;0.95;;;;;;;21.53;25.74;103099.13;4215182;28;20101;-47
2022/03/05 02:20:46;;;;;;;1.10;0.90;;;;;;;21.52;25.80;103100.19;4215480;28;20530;-45
2022/03/05 02:22:47;;;;;;;1.65;1.23;;;;;;;21.55;25.78;103112.81;4215597;28;20040;-44
2022/03/05 02:24:55;;;;;;;2.60;1.25;;;;;;;21.55;25.56;103112.81;4215077;28;20040;-44
2022/03/05 02:26:56;;;;;;;1.35;0.90;;;;;;;21.55;25.85;103110.88;4214981;28;20475;-47
2022/03/05 02:28:57;;;;;;;1.13;1.00;;;;;;;21.56;25.50;103108.94;4215038;28;20039;-45
2022/03/05 02:30:59;;;;;;;1.65;1.00;;;;;;;21.56;25.74;103114.50;4215105;28;20093;-44
2022/03/05 02:33:01;;;;;;;1.63;1.00;;;;;;;21.55;25.60;103110.03;4215310;28;20028;-45
2022/03/05 02:35:05;;;;;;;1.27;1.10;;;;;;;21.53;25.62;103110.28;4215103;28;20036;-44
2022/03/05 02:37:11;;;;;;;2.13;1.00;;;;;;;21.58;25.62;103112.34;4215012;28;20028;-44
2022/03/05 02:39:12;;;;;;;;;;;;;;;21.57;25.66;103116.19;4215167;28;20099;-45
2022/03/05 02:41:13;;;;;;;1.85;1.00;;;;;;;21.66;25.64;103113.94;4214555;28;19912;-48
2022/03/05 02:43:15;;;;;;;1.00;0.90;;;;;;;21.66;25.35;103120.38;4214852;28;20027;-44
2022/03/05 02:45:17;;;;;;;1.27;1.00;;;;;;;21.64;25.39;103111.41;4214387;28;20048;-45
2022/03/05 02:47:19;;;;;;;1.73;1.27;;;;;;;21.64;25.41;103116.13;4214894;28;20031;-44
2022/03/05 02:49:20;;;;;;;1.00;0.63;;;;;;;21.63;25.69;103112.50;4214359;28;20028;-47
2022/03/05 02:51:22;;;;;;;1.60;1.10;;;;;;;21.62;25.37;103116.34;4214419;28;20105;-46
2022/03/05 02:53:23;;;;;;;1.50;1.20;;;;;;;21.60;25.46;103121.31;4214706;28;20545;-46
2022/03/05 02:55:25;;;;;;;1.90;1.02;;;;;;;21.61;25.61;103117.44;4215022;28;20089;-52
2022/03/05 02:57:26;;;;;;;1.65;1.15;;;;;;;21.62;25.39;103124.69;4214781;28;20567;-46
2022/03/05 02:59:28;;;;;;;1.05;0.93;;;;;;;21.57;25.56;103110.63;4214538;28;20047;-45
2022/03/05 03:01:32;;;;;;;1.58;1.08;;;;;;;21.61;25.43;103114.66;4214373;28;20036;-45
2022/03/05 03:03:34;;;;;;;1.63;1.23;;;;;;;21.62;25.35;103123.84;4214710;28;20036;-45
2022/03/05 03:05:38;;;;;;;1.65;1.00;;;;;;;21.60;25.35;103115.75;4214591;28;20323;-45
2022/03/05 03:07:40;;;;;;;1.80;1.23;;;;;;;21.62;25.69;103129.44;4215023;28;20441;-43
2022/03/05 03:09:42;;;;;;;2.15;0.98;;;;;;;21.62;25.39;103130.28;4214704;28;20027;-45
2022/03/05 03:11:44;;;;;;;1.60;1.08;;;;;;;21.62;25.81;103129.44;4214287;28;20040;-45
2022/03/05 03:13:48;;;;;;;1.85;1.10;;;;;;;21.60;25.54;103128.81;4214473;28;20036;-47
2022/03/05 03:15:50;;;;;;;1.52;1.10;;;;;;;21.63;25.67;103136.72;4214144;28;20442;-48
2022/03/05 03:17:52;;;;;;;1.40;1.13;;;;;;;21.62;25.68;103127.50;4214582;28;20149;-43
2022/03/05 03:19:53;;;;;;;1.95;1.23;;;;;;;21.63;25.56;103131.16;4214408;28;20052;-46
2022/03/05 03:21:55;;;;;;;2.00;1.10;;;;;;;21.61;25.38;103123.00;4213074;28;20040;-47
2022/03/05 03:23:56;;;;;;;2.25;1.05;;;;;;;21.62;25.59;103135.00;4214771;28;20491;-45
2022/03/05 03:25:57;;;;;;;1.27;1.00;;;;;;;21.62;25.24;103124.69;4213994;28;20040;-46
2022/03/05 03:27:59;;;;;;;1.50;0.95;;;;;;;21.62;25.38;103135.84;4214014;28;20044;-45
2022/03/05 03:30:00;;;;;;;2.17;1.20;;;;;;;21.61;25.52;103127.75;4214406;28;20023;-45
2022/03/05 03:32:03;;;;;;;1.10;0.90;;;;;;;21.58;25.34;103129.06;4214321;28;20093;-44
2022/03/05 03:34:04;;;;;;;2.40;1.05;;;;;;;21.62;25.61;103133.06;4214390;28;20024;-46
2022/03/05 03:36:06;;;;;;;1.30;0.98;;;;;;;21.61;25.63;103138.88;4214575;28;20426;-48
2022/03/05 03:38:07;;;;;;;2.50;1.20;;;;;;;21.61;25.33;103134.16;4214201;28;20157;-44
2022/03/05 03:40:11;;;;;;;1.30;1.20;;;;;;;21.59;25.04;103124.34;4212922;28;20102;-44
2022/03/05 03:42:13;;;;;;;2.13;1.00;;;;;;;21.60;25.53;103131.63;4213965;28;20036;-44
2022/03/05 03:44:14;;;;;;;1.00;0.90;;;;;;;21.51;25.12;103117.13;4213810;28;20044;-44
2022/03/05 03:46:16;;;;;;;0.98;0.88;;;;;;;21.57;25.51;103135.69;4214659;28;20093;-47
2022/03/05 03:48:17;;;;;;;1.17;0.90;;;;;;;21.58;25.10;103137.44;4214721;28;20425;-45
2022/03/05 03:50:22;;;;;;;2.13;1.27;;;;;;;21.54;25.45;103131.47;4214301;28;20036;-47
2022/03/05 03:52:26;;;;;;;1.55;1.25;;;;;;;21.57;25.48;103132.91;4213959;28;20360;-45
2022/03/05 03:54:27;;;;;;;1.42;1.02;;;;;;;21.59;25.58;103132.69;4214003;28;20047;-45
2022/03/05 03:56:29;;;;;;;1.52;1.05;;;;;;;21.57;25.12;103127.34;4215844;28;20040;-46
2022/03/05 03:58:30;;;;;;;9.60;1.77;;;;;;;21.50;25.57;103109.88;4217510;28;20036;-49
2022/03/05 04:00:32;;;;;;;1.83;1.10;;;;;;;21.56;25.33;103134.84;4217637;28;20429;-48
2022/03/05 04:02:33;;;;;;;3.45;1.42;;;;;;;21.57;25.37;103144.06;4217718;28;20475;-48
2022/03/05 04:04:35;;;;;;;0.85;0.77;;;;;;;21.55;25.25;103140.66;4217737;28;20109;-45
2022/03/05 04:08:57;;;;;;;1.50;1.13;;;;;;;21.54;25.52;103138.97;4218022;28;20089;-43
2022/03/05 04:10:58;;;;;;;1.02;0.93;;;;;;;21.53;25.52;103137.25;4217549;28;20544;-48
2022/03/05 04:12:59;;;;;;;1.63;1.20;;;;;;;21.32;25.29;103099.59;4217549;28;20463;-50
2022/03/05 04:15:05;;;;;;;2.10;1.10;;;;;;;21.51;25.27;103136.63;4217844;28;20040;-47
2022/03/05 04:17:06;;;;;;;1.70;1.02;;;;;;;21.51;25.38;103133.84;4217531;28;20066;-44
2022/03/05 04:19:11;;;;;;;2.15;0.85;;;;;;;21.48;25.00;103128.75;4217260;28;20081;-45
2022/03/05 04:21:12;;;;;;;2.05;1.10;;;;;;;21.51;25.13;103133.84;4217435;28;20040;-46
2022/03/05 04:23:14;;;;;;;2.63;1.30;;;;;;;21.50;25.53;103130.22;4215576;28;20032;-47
2022/03/05 04:25:15;;;;;;;1.00;0.88;;;;;;;21.49;25.34;103131.31;4215746;28;20485;-48
2022/03/05 04:27:17;;;;;;;3.30;1.20;;;;;;;21.46;25.37;103125.34;4217380;28;20097;-47
2022/03/05 04:29:18;;;;;;;1.77;1.13;;;;;;;21.49;25.44;103136.03;4217217;28;20520;-51
2022/03/05 04:31:29;;;;;;;2.05;1.17;;;;;;;21.46;25.49;103131.78;4215003;28;20040;-47
2022/03/05 04:33:30;;;;;;;3.35;1.30;;;;;;;21.47;25.07;103127.03;4200687;28;20121;-50
2022/03/05 04:35:31;;;;;;;2.53;1.10;;;;;;;21.46;25.19;103130.91;4200406;28;20525;-45
2022/03/05 04:37:33;;;;;;;1.30;0.90;;;;;;;21.47;25.26;103124.25;4200478;28;20406;-47
2022/03/05 04:39:35;;;;;;;1.40;1.00;;;;;;;21.45;25.15;103123.66;4199756;28;20102;-45
2022/03/05 04:41:36;;;;;;;1.65;1.23;;;;;;;21.41;25.43;103122.41;4199739;28;20036;-49
2022/03/05 04:43:37;;;;;;;1.52;1.00;;;;;;;21.44;25.20;103127.50;4200126;28;20037;-45
2022/03/05 04:45:40;;;;;;;1.13;1.00;;;;;;;21.42;25.28;103124.09;4199584;28;20484;-48
2022/03/05 04:47:42;;;;;;;1.48;1.00;;;;;;;21.40;25.32;103129.91;4203580;28;20112;-49
2022/03/05 04:49:43;;;;;;;2.45;1.17;;;;;;;21.41;25.22;103133.56;4198444;28;20078;-47
2022/03/05 04:51:45;;;;;;;1.85;1.35;;;;;;;21.40;25.63;103126.28;4199853;28;20036;-45
2022/03/05 04:53:46;;;;;;;2.63;1.50;;;;;;;21.36;25.34;103131.47;4198909;28;20521;-45
2022/03/05 04:55:54;;;;;;;2.95;1.08;;;;;;;21.39;25.36;103127.34;4199954;28;20040;-49
2022/03/05 04:57:55;;;;;;;1.60;1.00;;;;;;;21.35;25.17;103123.31;4199570;28;20097;-45
2022/03/05 04:59:56;;;;;;;2.80;0.90;;;;;;;21.37;25.27;103123.94;4198753;28;20094;-46
2022/03/05 05:01:58;;;;;;;1.48;1.30;;;;;;;21.35;25.34;103114.97;4199586;28;20033;-46
2022/03/05 05:03:59;;;;;;;1.83;1.20;;;;;;;21.29;25.39;103109.19;4200061;28;20040;-45
2022/03/05 05:06:01;;;;;;;2.10;1.10;;;;;;;21.33;25.60;103119.94;4198126;28;20090;-45
2022/03/05 05:08:02;;;;;;;1.60;1.08;;;;;;;21.33;25.35;103123.56;4198639;28;20094;-47
2022/03/05 05:10:05;;;;;;;1.65;1.02;;;;;;;21.34;25.16;103121.63;4199729;28;20044;-45
2022/03/05 05:12:07;;;;;;;2.47;1.10;;;;;;;21.33;25.48;103122.72;4199474;28;20086;-44
2022/03/05 05:14:10;;;;;;;2.63;1.42;;;;;;;21.31;25.33;103121.00;4199857;28;20036;-45
2022/03/05 05:16:12;;;;;;;1.63;1.25;;;;;;;21.30;25.38;103124.84;4199620;28;20113;-44
2022/03/05 05:18:13;;;;;;;1.13;0.82;;;;;;;21.28;25.48;103118.66;4199843;28;20102;-43
2022/03/05 05:20:17;;;;;;;1.58;1.17;;;;;;;21.28;25.62;103115.88;4199158;28;20403;-46
2022/03/05 05:22:19;;;;;;;1.35;1.10;;;;;;;21.27;25.65;103116.94;4199323;28;20085;-43
2022/03/05 05:24:21;;;;;;;1.98;1.20;;;;;;;21.27;25.58;103122.53;4199482;28;20041;-46
2022/03/05 05:26:22;;;;;;;1.83;1.13;;;;;;;21.26;25.54;103109.69;4199275;28;20086;-45
2022/03/05 05:28:24;;;;;;;1.20;1.00;;;;;;;21.26;25.66;103122.75;4199422;28;20044;-46
2022/03/05 05:30:27;;;;;;;2.08;1.20;;;;;;;21.25;25.30;103119.09;4199440;28;20040;-44
2022/03/05 05:32:29;;;;;;;1.48;1.05;;;;;;;21.24;25.80;103117.41;4199503;28;20048;-44
2022/03/05 05:34:30;;;;;;;2.13;0.93;;;;;;;21.23;25.31;103115.72;4199396;28;20033;-45
2022/03/05 05:36:31;;;;;;;1.10;0.80;;;;;;;21.21;25.40;103112.31;4199390;28;20040;-44
2022/03/05 05:38:36;;;;;;;1.65;1.25;;;;;;;21.23;25.63;103124.06;4199348;28;20036;-46
2022/03/05 05:40:37;;;;;;;1.50;0.90;;;;;;;21.21;25.81;103117.00;4199061;28;20029;-44
2022/03/05 05:42:38;;;;;;;1.52;1.00;;;;;;;21.21;25.69;103117.00;4199370;28;20078;-46
2022/03/05 05:44:40;;;;;;;1.60;1.10;;;;;;;21.18;25.68;103112.78;4199329;28;20032;-47
2022/03/05 05:46:42;;;;;;;1.27;0.98;;;;;;;21.03;25.38;103099.22;4199118;28;20036;-46
2022/03/05 05:48:43;;;;;;;1.17;1.00;;;;;;;21.18;25.65;103123.91;4199124;28;20037;-44
2022/03/05 05:50:44;;;;;;;1.67;1.20;;;;;;;21.17;25.61;103121.38;4198902;28;20033;-48
2022/03/05 05:52:46;;;;;;;1.73;1.20;;;;;;;21.16;25.85;103116.84;4198959;28;20086;-45
2022/03/05 05:54:47;;;;;;;1.60;1.10;;;;;;;21.14;25.72;103119.88;4199049;28;20458;-44
2022/03/05 05:56:48;;;;;;;1.30;1.10;;;;;;;21.13;25.91;103120.97;4199121;28;20048;-46
2022/03/05 05:58:50;;;;;;;1.40;1.00;;;;;;;21.12;25.93;103119.28;4198852;28;20040;-44
2022/03/05 06:00:51;;;;;;;1.48;1.00;;;;;;;21.12;25.69;103119.28;4199101;28;20037;-46
2022/03/05 06:02:53;;;;;;;1.65;1.10;;;;;;;21.09;25.47;103114.16;4201541;28;20105;-45
2022/03/05 06:04:54;;;;;;;2.00;1.20;;;;;;;21.10;25.87;103124.19;4214797;28;20441;-47
2022/03/05 06:06:55;;;;;;;1.20;1.08;;;;;;;21.09;25.55;103119.72;4215358;28;20560;-44
2022/03/05 06:09:00;;;;;;;1.80;1.15;;;;;;;21.09;25.80;103119.72;4215637;28;20028;-44
2022/03/05 06:11:01;;;;;;;1.52;1.17;;;;;;;21.07;25.56;103116.28;4214937;28;20040;-46
2022/03/05 06:13:05;;;;;;;2.13;1.67;;;;;;;21.02;25.95;103105.84;4215639;28;20074;-45
2022/03/05 06:15:09;;;;;;;1.73;1.20;;;;;;;21.02;25.81;103102.22;4215510;28;20105;-44
2022/03/05 06:17:11;;;;;;;1.63;1.00;;;;;;;21.05;26.01;103101.78;4214206;28;20109;-48
2022/03/05 06:19:12;;;;;;;1.40;1.08;;;;;;;21.03;25.86;103098.38;4214966;28;20097;-47
2022/03/05 06:21:13;;;;;;;3.13;2.63;;;;;;;20.96;25.88;103089.22;4215361;28;20047;-44
2022/03/05 06:23:15;;;;;;;7.32;5.03;;;;;;;21.01;25.72;103100.53;4215195;28;20101;-43
2022/03/05 06:25:20;;;;;;;6.57;3.72;;;;;;;20.97;25.79;103100.13;4215120;28;20089;-44
2022/03/05 06:27:24;;;;;;;6.80;4.05;;;;;;;21.00;26.24;103098.81;4215291;28;20040;-45
2022/03/05 06:29:25;;;;;;;7.55;5.57;;;;;;;21.00;26.16;103105.25;4215188;28;20097;-43
2022/03/05 06:31:26;;;;;;;8.20;5.63;;;;;;;20.98;26.38;103101.84;4209971;28;20422;-49
2022/03/05 06:33:28;;;;;;;8.50;5.70;;;;;;;20.93;26.33;103092.47;4203954;28;20074;-44
2022/03/05 06:35:29;;;;;;;9.73;6.75;;;;;;;20.97;26.20;103096.50;4209480;28;20028;-43
2022/03/05 06:37:31;;;;;;;10.35;7.45;;;;;;;20.93;26.24;103086.91;4215466;28;20032;-44
2022/03/05 06:39:33;;;;;;;9.35;7.00;;;;;;;20.97;26.29;103093.72;4214925;28;20548;-46
2022/03/05 06:41:34;;;;;;;13.00;6.75;;;;;;;20.98;26.36;103096.28;4214768;28;20097;-46
2022/03/05 06:43:38;;;;;;;10.93;7.40;;;;;;;20.99;26.65;103091.56;4213182;28;20043;-46
2022/03/05 06:45:40;;;;;;;13.55;7.40;;;;;;;20.99;26.67;103097.97;4202782;28;20105;-48
2022/03/05 06:47:41;;;;;;;9.48;6.75;;;;;;;20.99;26.45;103091.56;4213311;28;20024;-44
2022/03/05 06:49:43;;;;;;;9.82;7.30;;;;;;;21.01;26.51;103089.38;4214963;28;20036;-46
2022/03/05 06:51:44;;;;;;;10.82;7.53;;;;;;;21.01;26.44;103092.16;4213996;28;20109;-43
2022/03/05 06:53:46;;;;;;;9.77;6.90;;;;;;;21.01;26.50;103083.81;4214414;28;20479;-45
2022/03/05 06:55:47;;;;;;;12.73;7.25;;;;;;;21.03;26.33;103081.69;4214501;28;20426;-45
2022/03/05 06:57:49;;;;;;;11.15;7.20;;;;;;;21.05;26.76;103093.41;4214601;28;20085;-46
2022/03/05 06:59:51;;;;;;;10.50;7.05;;;;;;;21.05;26.37;103073.94;4213538;28;20040;-43
2022/03/05 07:01:52;;;;;;;9.90;6.57;;;;;;;21.08;26.51;103073.47;4214237;28;20032;-48
2022/03/05 07:03:53;;;;;;;10.23;6.88;;;;;;;21.08;26.33;103073.47;4214746;28;20066;-43
2022/03/05 07:05:55;;;;;;;12.30;7.45;;;;;;;21.09;26.85;103063.19;4214392;28;20044;-47
2022/03/05 07:07:56;;;;;;;11.55;7.22;;;;;;;21.09;26.42;103064.03;4214952;28;20036;-46
2022/03/05 07:09:57;;;;;;;9.98;6.45;;;;;;;21.09;26.41;103069.59;4214737;28;20450;-44
2022/03/05 07:11:59;;;;;;;9.63;6.97;;;;;;;21.09;26.45;103072.38;4213634;28;20556;-44
2022/03/05 07:14:01;;;;;;;8.85;6.78;;;;;;;21.09;26.67;103069.59;4213285;28;20047;-46
2022/03/05 07:16:02;;;;;;;8.88;6.40;;;;;;;21.11;26.74;103067.44;4214989;28;20043;-45
2022/03/05 07:18:04;;;;;;;10.68;6.70;;;;;;;21.08;26.77;103067.91;4214232;28;20101;-46
2022/03/05 07:20:05;;;;;;;8.60;5.75;;;;;;;21.09;26.83;103069.59;4212932;28;20040;-46
2022/03/05 07:22:07;;;;;;;9.02;6.47;;;;;;;21.11;26.60;103070.22;4213392;28;20839;-47
2022/03/05 07:24:08;;;;;;;8.32;6.47;;;;;;;21.12;26.75;103068.28;4214642;28;20040;-44
2022/03/05 07:26:10;;;;;;;7.93;6.00;;;;;;;21.11;26.58;103073.00;4214259;28;20097;-45
2022/03/05 07:28:11;;;;;;;9.02;6.25;;;;;;;21.08;27.08;103062.34;4213395;28;20607;-44
2022/03/05 07:30:13;;;;;;;8.15;5.90;;;;;;;21.12;27.00;103062.72;4214187;28;20089;-44
2022/03/05 07:32:15;;;;;;;7.45;5.68;;;;;;;21.10;26.98;103062.94;4213573;28;20089;-46
2022/03/05 07:34:17;;;;;;;8.73;5.75;;;;;;;21.12;26.75;103062.72;4214297;28;20105;-44
2022/03/05 07:36:22;;;;;;;7.65;5.57;;;;;;;21.12;27.07;103069.16;4214308;28;20413;-47
2022/03/05 07:38:23;;;;;;;8.52;5.88;;;;;;;21.10;26.75;103054.59;4212561;28;20044;-44
2022/03/05 07:40:24;;;;;;;6.97;4.97;;;;;;;21.11;26.80;103064.66;4214387;28;20089;-44
2022/03/05 07:42:26;;;;;;;6.35;4.85;;;;;;;21.12;26.73;103077.50;4213805;28;20036;-43
2022/03/05 07:44:27;;;;;;;8.85;5.40;;;;;;;21.14;26.84;103071.69;4214309;28;20036;-45
2022/03/05 07:46:29;;;;;;;6.50;4.93;;;;;;;21.08;26.92;103064.28;4214246;28;20352;-48
2022/03/05 07:48:31;;;;;;;8.85;5.43;;;;;;;21.12;26.73;103080.28;4214303;28;20040;-44
2022/03/05 07:50:32;;;;;;;7.05;4.97;;;;;;;21.13;26.97;103076.41;4214157;28;20184;-44
2022/03/05 07:52:33;;;;;;;6.25;4.63;;;;;;;21.12;26.70;103071.94;4214178;28;20058;-46
2022/03/05 07:54:37;;;;;;;7.15;4.80;;;;;;;21.12;27.15;103074.72;4214436;28;20117;-46
2022/03/05 07:56:39;;;;;;;7.13;5.22;;;;;;;21.12;26.68;103068.28;4214183;28;20081;-44
2022/03/05 07:58:40;;;;;;;6.38;4.82;;;;;;;21.12;26.69;103076.63;4213955;28;20093;-46
2022/03/05 08:00:42;;;;;;;6.45;4.90;;;;;;;21.10;27.00;103071.31;4213156;28;20101;-45
2022/03/05 08:02:43;;;;;;;6.03;4.53;;;;;;;21.10;26.87;103065.72;4213740;28;20036;-48
2022/03/05 08:04:44;;;;;;;5.55;4.40;;;;;;;21.11;27.03;103066.59;4212923;28;20081;-45
2022/03/05 08:06:46;;;;;;;6.45;4.70;;;;;;;21.13;26.83;103073.63;4213844;28;20040;-46
2022/03/05 08:08:47;;;;;;;5.95;4.00;;;;;;;21.07;26.71;103068.97;4214189;28;20032;-45
2022/03/05 08:10:49;;;;;;;5.75;4.65;;;;;;;21.10;26.92;103065.72;4213837;28;20036;-43
2022/03/05 08:12:50;;;;;;;6.00;4.68;;;;;;;21.09;26.78;103069.59;4212274;28;20109;-45
2022/03/05 08:14:51;;;;;;;5.88;4.45;;;;;;;21.06;26.85;103064.50;4213943;28;20052;-45
2022/03/05 08:16:53;;;;;;;5.80;4.15;;;;;;;21.09;26.69;103075.19;4214069;28;20069;-44
2022/03/05 08:18:57;;;;;;;5.72;4.20;;;;;;;21.08;27.05;103062.34;4213571;28;20442;-44
2022/03/05 08:21:53;;;;;;;6.47;4.63;;;;;;;21.07;26.87;103049.47;4213615;28;20093;-47
2022/03/05 08:23:59;;;;;;;5.95;4.30;;;;;;;21.10;27.00;103065.72;4201209;28;20445;-44
2022/03/05 08:26:00;;;;;;;5.30;4.10;;;;;;;21.08;26.92;103065.13;4213944;28;20040;-44
2022/03/05 08:28:02;;;;;;;4.25;3.63;;;;;;;21.09;26.98;103072.38;4213609;28;20093;-44
2022/03/05 08:30:04;;;;;;;5.13;3.70;;;;;;;21.08;26.93;103075.41;4213573;28;20089;-44
2022/03/05 08:32:06;;;;;;;5.20;3.53;;;;;;;21.01;27.04;103065.19;4213586;28;20445;-45
2022/03/05 08:34:10;;;;;;;6.35;4.07;;;;;;;21.04;26.76;103064.72;4213930;28;20078;-43
2022/03/05 08:36:12;;;;;;;6.93;3.83;;;;;;;21.04;26.85;103078.66;4214122;28;20571;-44
2022/03/05 08:38:14;;;;;;;5.30;3.78;;;;;;;21.05;26.69;103068.38;4214053;28;20081;-46
2022/03/05 08:40:15;;;;;;;5.50;3.50;;;;;;;21.05;26.86;103079.50;4213653;28;20417;-46
2022/03/05 08:42:17;;;;;;;5.72;3.55;;;;;;;21.03;26.95;103079.75;4214663;28;20036;-44
2022/03/05 08:44:21;;;;;;;4.85;3.40;;;;;;;21.02;26.97;103079.94;4216935;28;20097;-47
2022/03/05 08:46:22;;;;;;;4.97;3.55;;;;;;;21.02;27.28;103083.56;4216902;28;20040;-46
2022/03/05 08:48:23;;;;;;;5.90;4.00;;;;;;;21.02;26.84;103085.50;4216796;28;20090;-46
2022/03/05 08:50:25;;;;;;;5.43;3.50;;;;;;;21.01;26.71;103081.03;4211085;28;20093;-45
2022/03/05 08:52:29;;;;;;;5.55;3.50;;;;;;;20.98;27.02;103098.19;4216521;28;20429;-45
2022/03/05 08:54:30;;;;;;;5.28;3.58;;;;;;;21.01;27.00;103092.16;4216657;28;20624;-44
2022/03/05 08:56:32;;;;;;;4.60;3.13;;;;;;;21.00;26.99;103098.81;4216756;28;20032;-46
2022/03/05 08:58:36;;;;;;;3.70;3.13;;;;;;;20.98;27.19;103110.19;4217076;28;20544;-46
2022/03/05 09:00:37;;;;;;;5.05;2.95;;;;;;;20.97;26.94;103104.84;4216696;28;20101;-46
2022/03/05 09:02:39;;;;;;;3.85;3.17;;;;;;;20.95;26.92;103113.44;4216614;28;20044;-45
2022/03/05 09:04:40;;;;;;;4.30;3.20;;;;;;;20.96;27.28;103114.28;4207971;28;20094;-45
2022/03/05 09:06:42;;;;;;;3.72;2.80;;;;;;;20.92;27.08;103113.03;4211588;28;20082;-44
2022/03/05 09:08:44;;;;;;;3.65;3.08;;;;;;;20.92;26.75;103113.88;4215976;28;20028;-44
2022/03/05 09:10:46;;;;;;;4.55;2.70;;;;;;;20.93;26.96;103120.28;4215376;28;20032;-47
2022/03/05 09:12:47;;;;;;;5.38;2.78;;;;;;;20.92;27.12;103121.38;4215960;28;20036;-47
2022/03/05 09:14:52;;;;;;;4.72;3.33;;;;;;;20.91;27.27;103111.34;4216621;28;20036;-47
2022/03/05 09:16:55;;;;;;;5.30;2.95;;;;;;;20.91;26.93;103116.91;4215380;28;20040;-46
2022/03/05 09:18:56;;;;;;;3.80;3.08;;;;;;;20.90;27.31;103123.56;4215529;28;20062;-43
2022/03/05 09:20:57;;;;;;;4.75;2.85;;;;;;;20.91;27.29;103133.59;4215714;28;20433;-43
2022/03/05 09:23:01;;;;;;;4.35;3.28;;;;;;;20.87;27.21;103124.84;4216533;28;20475;-47
2022/03/05 09:25:04;;;;;;;3.45;2.85;;;;;;;20.87;27.37;103126.78;4215972;28;20093;-43
2022/03/05 09:27:05;;;;;;;3.47;2.63;;;;;;;20.84;27.36;103118.88;4216212;28;20433;-43
2022/03/05 09:29:07;;;;;;;4.93;2.88;;;;;;;20.86;27.24;103130.66;4216187;28;20047;-48